sensor_id;sensor_type;location;lat;lon;timestamp;P1;durP1;ratioP1;P2;durP2;ratioP2
64140;SDS011;50436;50.618;7.932;2023-04-07T00:01:54;0.10;;;0.10;;
64140;SDS011;50436;50.618;7.932;2023-04-07T00:04:40;0.10;;;0.10;;
64140;SDS011;50436;50.618;7.932;2023-04-07T00:07:25;0.10;;;0.10;;
64140;SDS011;50436;50.618;7.932;2023-04-07T00:10:11;0.20;;;0.20;;
64140;SDS011;50436;50.618;7.932;2023-04-07T00:12:57;0.20;;;0.20;;
64140;SDS011;50436;50.618;7.932;2023-04-07T00:15:43;0.10;;;0.10;;
64140;SDS011;50436;50.618;7.932;2023-04-07T00:18:29;0.20;;;0.20;;
64140;SDS011;50436;50.618;7.932;2023-04-07T00:21:15;0.20;;;0.20;;
64140;SDS011;50436;50.618;7.932;2023-04-07T00:24:00;0.20;;;0.20;;
64140;SDS011;50436;50.618;7.932;2023-04-07T00:26:46;0.20;;;0.20;;
64140;SDS011;50436;50.618;7.932;2023-04-07T00:29:32;0.30;;;0.22;;
64140;SDS011;50436;50.618;7.932;2023-04-07T00:32:17;0.20;;;0.20;;
64140;SDS011;50436;50.618;7.932;2023-04-07T00:35:03;0.20;;;0.20;;
64140;SDS011;50436;50.618;7.932;2023-04-07T00:37:49;0.50;;;0.30;;
64140;SDS011;50436;50.618;7.932;2023-04-07T00:40:35;0.20;;;0.20;;
64140;SDS011;50436;50.618;7.932;2023-04-07T00:43:21;0.45;;;0.30;;
64140;SDS011;50436;50.618;7.932;2023-04-07T00:46:06;0.10;;;0.10;;
64140;SDS011;50436;50.618;7.932;2023-04-07T00:48:53;0.45;;;0.30;;
64140;SDS011;50436;50.618;7.932;2023-04-07T00:51:38;0.68;;;0.40;;
64140;SDS011;50436;50.618;7.932;2023-04-07T00:54:25;0.45;;;0.30;;
64140;SDS011;50436;50.618;7.932;2023-04-07T00:57:11;0.40;;;0.30;;
64140;SDS011;50436;50.618;7.932;2023-04-07T00:59:56;0.52;;;0.32;;
64140;SDS011;50436;50.618;7.932;2023-04-07T01:02:44;0.60;;;0.40;;
64140;SDS011;50436;50.618;7.932;2023-04-07T01:05:41;0.68;;;0.40;;
64140;SDS011;50436;50.618;7.932;2023-04-07T01:11:27;0.47;;;0.35;;
64140;SDS011;50436;50.618;7.932;2023-04-07T01:14:15;0.80;;;0.55;;
64140;SDS011;50436;50.618;7.932;2023-04-07T01:17:04;0.90;;;0.50;;
64140;SDS011;50436;50.618;7.932;2023-04-07T01:22:40;0.30;;;0.30;;
64140;SDS011;50436;50.618;7.932;2023-04-07T01:31:00;1.20;;;0.80;;
64140;SDS011;50436;50.618;7.932;2023-04-07T01:33:48;1.33;;;0.80;;
64140;SDS011;50436;50.618;7.932;2023-04-07T01:36:34;1.23;;;0.75;;
64140;SDS011;50436;50.618;7.932;2023-04-07T01:39:20;0.63;;;0.40;;
64140;SDS011;50436;50.618;7.932;2023-04-07T01:42:06;1.67;;;0.98;;
64140;SDS011;50436;50.618;7.932;2023-04-07T01:44:52;1.00;;;0.57;;
64140;SDS011;50436;50.618;7.932;2023-04-07T01:47:38;1.27;;;0.68;;
64140;SDS011;50436;50.618;7.932;2023-04-07T01:50:27;0.60;;;0.40;;
64140;SDS011;50436;50.618;7.932;2023-04-07T01:53:14;0.85;;;0.40;;
64140;SDS011;50436;50.618;7.932;2023-04-07T01:56:00;0.73;;;0.43;;
64140;SDS011;50436;50.618;7.932;2023-04-07T01:58:46;0.40;;;0.30;;
64140;SDS011;50436;50.618;7.932;2023-04-07T02:01:35;0.80;;;0.40;;
64140;SDS011;50436;50.618;7.932;2023-04-07T02:04:31;0.52;;;0.35;;
64140;SDS011;50436;50.618;7.932;2023-04-07T02:07:34;0.30;;;0.30;;
64140;SDS011;50436;50.618;7.932;2023-04-07T02:10:24;0.25;;;0.20;;
64140;SDS011;50436;50.618;7.932;2023-04-07T02:13:15;0.20;;;0.20;;
64140;SDS011;50436;50.618;7.932;2023-04-07T02:16:03;0.20;;;0.20;;
64140;SDS011;50436;50.618;7.932;2023-04-07T02:18:48;0.10;;;0.10;;
64140;SDS011;50436;50.618;7.932;2023-04-07T02:21:34;0.10;;;0.10;;
64140;SDS011;50436;50.618;7.932;2023-04-07T02:24:20;0.10;;;0.10;;
64140;SDS011;50436;50.618;7.932;2023-04-07T02:27:07;0.10;;;0.10;;
64140;SDS011;50436;50.618;7.932;2023-04-07T02:29:52;0.20;;;0.20;;
64140;SDS011;50436;50.618;7.932;2023-04-07T02:32:41;0.20;;;0.20;;
64140;SDS011;50436;50.618;7.932;2023-04-07T02:35:27;0.20;;;0.20;;
64140;SDS011;50436;50.618;7.932;2023-04-07T02:38:13;0.20;;;0.20;;
64140;SDS011;50436;50.618;7.932;2023-04-07T02:40:58;0.20;;;0.20;;
64140;SDS011;50436;50.618;7.932;2023-04-07T02:43:47;0.35;;;0.25;;
64140;SDS011;50436;50.618;7.932;2023-04-07T02:46:35;0.30;;;0.20;;
64140;SDS011;50436;50.618;7.932;2023-04-07T02:49:21;0.22;;;0.20;;
64140;SDS011;50436;50.618;7.932;2023-04-07T02:52:06;0.47;;;0.38;;
64140;SDS011;50436;50.618;7.932;2023-04-07T02:54:52;0.65;;;0.40;;
64140;SDS011;50436;50.618;7.932;2023-04-07T02:57:42;0.30;;;0.25;;
64140;SDS011;50436;50.618;7.932;2023-04-07T03:00:38;0.20;;;0.20;;
64140;SDS011;50436;50.618;7.932;2023-04-07T03:03:34;0.20;;;0.20;;
64140;SDS011;50436;50.618;7.932;2023-04-07T03:06:26;0.20;;;0.20;;
64140;SDS011;50436;50.618;7.932;2023-04-07T03:09:21;0.10;;;0.10;;
64140;SDS011;50436;50.618;7.932;2023-04-07T03:12:07;0.10;;;0.10;;
64140;SDS011;50436;50.618;7.932;2023-04-07T03:14:55;0.10;;;0.10;;
64140;SDS011;50436;50.618;7.932;2023-04-07T03:17:42;0.20;;;0.20;;
64140;SDS011;50436;50.618;7.932;2023-04-07T03:20:29;0.10;;;0.10;;
64140;SDS011;50436;50.618;7.932;2023-04-07T03:23:19;0.20;;;0.20;;
64140;SDS011;50436;50.618;7.932;2023-04-07T03:26:05;0.30;;;0.30;;
64140;SDS011;50436;50.618;7.932;2023-04-07T03:28:54;0.73;;;0.30;;
64140;SDS011;50436;50.618;7.932;2023-04-07T03:31:40;0.20;;;0.20;;
64140;SDS011;50436;50.618;7.932;2023-04-07T03:34:26;0.85;;;0.40;;
64140;SDS011;50436;50.618;7.932;2023-04-07T03:37:12;0.52;;;0.38;;
64140;SDS011;50436;50.618;7.932;2023-04-07T03:39:57;0.77;;;0.45;;
64140;SDS011;50436;50.618;7.932;2023-04-07T03:42:46;1.00;;;0.60;;
64140;SDS011;50436;50.618;7.932;2023-04-07T03:45:33;1.38;;;0.60;;
64140;SDS011;50436;50.618;7.932;2023-04-07T03:48:20;0.75;;;0.50;;
64140;SDS011;50436;50.618;7.932;2023-04-07T03:51:16;0.50;;;0.30;;
64140;SDS011;50436;50.618;7.932;2023-04-07T03:54:05;0.60;;;0.40;;
64140;SDS011;50436;50.618;7.932;2023-04-07T03:56:56;0.77;;;0.40;;
64140;SDS011;50436;50.618;7.932;2023-04-07T03:59:42;0.70;;;0.40;;
64140;SDS011;50436;50.618;7.932;2023-04-07T04:02:28;0.20;;;0.20;;
64140;SDS011;50436;50.618;7.932;2023-04-07T04:05:15;0.45;;;0.30;;
64140;SDS011;50436;50.618;7.932;2023-04-07T04:08:02;0.32;;;0.20;;
64140;SDS011;50436;50.618;7.932;2023-04-07T04:10:48;0.30;;;0.30;;
64140;SDS011;50436;50.618;7.932;2023-04-07T04:13:34;0.20;;;0.20;;
64140;SDS011;50436;50.618;7.932;2023-04-07T04:16:23;0.50;;;0.30;;
64140;SDS011;50436;50.618;7.932;2023-04-07T04:19:10;0.32;;;0.30;;
64140;SDS011;50436;50.618;7.932;2023-04-07T04:21:56;0.30;;;0.20;;
64140;SDS011;50436;50.618;7.932;2023-04-07T04:24:42;0.30;;;0.20;;
64140;SDS011;50436;50.618;7.932;2023-04-07T04:27:28;0.40;;;0.30;;
64140;SDS011;50436;50.618;7.932;2023-04-07T04:30:22;0.57;;;0.38;;
64140;SDS011;50436;50.618;7.932;2023-04-07T04:33:10;0.55;;;0.32;;
64140;SDS011;50436;50.618;7.932;2023-04-07T04:36:05;0.40;;;0.30;;
64140;SDS011;50436;50.618;7.932;2023-04-07T04:38:51;0.20;;;0.20;;
64140;SDS011;50436;50.618;7.932;2023-04-07T04:41:39;0.25;;;0.20;;
64140;SDS011;50436;50.618;7.932;2023-04-07T04:44:27;0.50;;;0.30;;
64140;SDS011;50436;50.618;7.932;2023-04-07T04:47:15;0.32;;;0.30;;
64140;SDS011;50436;50.618;7.932;2023-04-07T04:50:01;0.50;;;0.30;;
64140;SDS011;50436;50.618;7.932;2023-04-07T04:52:50;0.20;;;0.20;;
64140;SDS011;50436;50.618;7.932;2023-04-07T04:55:40;0.20;;;0.20;;
64140;SDS011;50436;50.618;7.932;2023-04-07T04:58:29;0.20;;;0.20;;
64140;SDS011;50436;50.618;7.932;2023-04-07T05:01:16;0.20;;;0.20;;
64140;SDS011;50436;50.618;7.932;2023-04-07T05:04:10;0.20;;;0.20;;
64140;SDS011;50436;50.618;7.932;2023-04-07T05:06:59;0.10;;;0.10;;
64140;SDS011;50436;50.618;7.932;2023-04-07T05:09:48;0.20;;;0.20;;
64140;SDS011;50436;50.618;7.932;2023-04-07T05:12:36;0.13;;;0.13;;
64140;SDS011;50436;50.618;7.932;2023-04-07T05:15:22;0.10;;;0.10;;
64140;SDS011;50436;50.618;7.932;2023-04-07T05:18:09;0.17;;;0.17;;
64140;SDS011;50436;50.618;7.932;2023-04-07T05:20:55;0.17;;;0.17;;
64140;SDS011;50436;50.618;7.932;2023-04-07T05:23:41;0.10;;;0.10;;
64140;SDS011;50436;50.618;7.932;2023-04-07T05:26:28;0.10;;;0.10;;
64140;SDS011;50436;50.618;7.932;2023-04-07T05:29:15;0.10;;;0.10;;
64140;SDS011;50436;50.618;7.932;2023-04-07T05:32:00;0.20;;;0.20;;
64140;SDS011;50436;50.618;7.932;2023-04-07T05:34:49;0.10;;;0.10;;
64140;SDS011;50436;50.618;7.932;2023-04-07T05:37:36;0.10;;;0.10;;
64140;SDS011;50436;50.618;7.932;2023-04-07T05:40:23;0.10;;;0.10;;
64140;SDS011;50436;50.618;7.932;2023-04-07T05:43:10;0.10;;;0.10;;
64140;SDS011;50436;50.618;7.932;2023-04-07T05:45:57;0.10;;;0.10;;
64140;SDS011;50436;50.618;7.932;2023-04-07T05:48:43;0.10;;;0.10;;
64140;SDS011;50436;50.618;7.932;2023-04-07T05:51:29;0.10;;;0.10;;
64140;SDS011;50436;50.618;7.932;2023-04-07T05:54:18;0.10;;;0.10;;
64140;SDS011;50436;50.618;7.932;2023-04-07T05:57:04;0.10;;;0.10;;
64140;SDS011;50436;50.618;7.932;2023-04-07T05:59:51;0.10;;;0.10;;
64140;SDS011;50436;50.618;7.932;2023-04-07T06:02:37;0.10;;;0.10;;
64140;SDS011;50436;50.618;7.932;2023-04-07T06:05:26;0.10;;;0.10;;
64140;SDS011;50436;50.618;7.932;2023-04-07T06:08:14;0.10;;;0.10;;
64140;SDS011;50436;50.618;7.932;2023-04-07T06:11:01;0.10;;;0.10;;
64140;SDS011;50436;50.618;7.932;2023-04-07T06:13:46;0.10;;;0.10;;
64140;SDS011;50436;50.618;7.932;2023-04-07T06:16:32;0.20;;;0.20;;
64140;SDS011;50436;50.618;7.932;2023-04-07T06:19:18;0.10;;;0.10;;
64140;SDS011;50436;50.618;7.932;2023-04-07T06:22:04;0.10;;;0.10;;
64140;SDS011;50436;50.618;7.932;2023-04-07T06:24:50;0.10;;;0.10;;
64140;SDS011;50436;50.618;7.932;2023-04-07T06:27:36;0.10;;;0.10;;
64140;SDS011;50436;50.618;7.932;2023-04-07T06:30:21;0.20;;;0.20;;
64140;SDS011;50436;50.618;7.932;2023-04-07T06:33:07;0.15;;;0.15;;
64140;SDS011;50436;50.618;7.932;2023-04-07T06:35:53;0.10;;;0.10;;
64140;SDS011;50436;50.618;7.932;2023-04-07T06:38:39;0.10;;;0.10;;
64140;SDS011;50436;50.618;7.932;2023-04-07T06:41:24;0.10;;;0.10;;
64140;SDS011;50436;50.618;7.932;2023-04-07T06:44:10;0.10;;;0.10;;
64140;SDS011;50436;50.618;7.932;2023-04-07T06:46:56;0.10;;;0.10;;
64140;SDS011;50436;50.618;7.932;2023-04-07T06:49:42;0.15;;;0.15;;
64140;SDS011;50436;50.618;7.932;2023-04-07T06:52:27;0.10;;;0.10;;
64140;SDS011;50436;50.618;7.932;2023-04-07T06:55:13;0.10;;;0.10;;
64140;SDS011;50436;50.618;7.932;2023-04-07T06:57:59;0.10;;;0.10;;
64140;SDS011;50436;50.618;7.932;2023-04-07T07:00:45;0.10;;;0.10;;
64140;SDS011;50436;50.618;7.932;2023-04-07T07:03:31;0.10;;;0.10;;
64140;SDS011;50436;50.618;7.932;2023-04-07T07:06:16;0.10;;;0.10;;
64140;SDS011;50436;50.618;7.932;2023-04-07T07:09:02;0.20;;;0.20;;
64140;SDS011;50436;50.618;7.932;2023-04-07T07:11:48;0.15;;;0.15;;
64140;SDS011;50436;50.618;7.932;2023-04-07T07:14:34;0.10;;;0.10;;
64140;SDS011;50436;50.618;7.932;2023-04-07T07:17:19;0.10;;;0.10;;
64140;SDS011;50436;50.618;7.932;2023-04-07T07:20:05;0.10;;;0.10;;
64140;SDS011;50436;50.618;7.932;2023-04-07T07:22:52;0.10;;;0.10;;
64140;SDS011;50436;50.618;7.932;2023-04-07T07:25:38;0.10;;;0.10;;
64140;SDS011;50436;50.618;7.932;2023-04-07T07:28:23;0.10;;;0.10;;
64140;SDS011;50436;50.618;7.932;2023-04-07T07:31:10;0.10;;;0.10;;
64140;SDS011;50436;50.618;7.932;2023-04-07T07:33:57;0.10;;;0.10;;
64140;SDS011;50436;50.618;7.932;2023-04-07T07:36:43;0.10;;;0.10;;
64140;SDS011;50436;50.618;7.932;2023-04-07T07:39:28;0.10;;;0.10;;
64140;SDS011;50436;50.618;7.932;2023-04-07T07:42:14;0.10;;;0.10;;
64140;SDS011;50436;50.618;7.932;2023-04-07T07:45:00;0.10;;;0.10;;
64140;SDS011;50436;50.618;7.932;2023-04-07T07:47:46;0.10;;;0.10;;
64140;SDS011;50436;50.618;7.932;2023-04-07T07:50:31;0.10;;;0.10;;
64140;SDS011;50436;50.618;7.932;2023-04-07T07:53:17;0.10;;;0.10;;
64140;SDS011;50436;50.618;7.932;2023-04-07T07:56:03;0.10;;;0.10;;
64140;SDS011;50436;50.618;7.932;2023-04-07T07:58:48;0.10;;;0.10;;
64140;SDS011;50436;50.618;7.932;2023-04-07T08:01:34;0.10;;;0.10;;
64140;SDS011;50436;50.618;7.932;2023-04-07T08:04:20;0.10;;;0.10;;
64140;SDS011;50436;50.618;7.932;2023-04-07T08:07:07;0.10;;;0.10;;
64140;SDS011;50436;50.618;7.932;2023-04-07T08:09:53;0.10;;;0.10;;
64140;SDS011;50436;50.618;7.932;2023-04-07T08:12:39;0.10;;;0.10;;
64140;SDS011;50436;50.618;7.932;2023-04-07T08:15:24;0.10;;;0.10;;
64140;SDS011;50436;50.618;7.932;2023-04-07T08:18:10;0.10;;;0.10;;
64140;SDS011;50436;50.618;7.932;2023-04-07T08:20:56;0.20;;;0.20;;
64140;SDS011;50436;50.618;7.932;2023-04-07T08:23:42;0.10;;;0.10;;
64140;SDS011;50436;50.618;7.932;2023-04-07T08:26:28;0.10;;;0.10;;
64140;SDS011;50436;50.618;7.932;2023-04-07T08:29:14;0.10;;;0.10;;
64140;SDS011;50436;50.618;7.932;2023-04-07T08:32:00;0.10;;;0.10;;
64140;SDS011;50436;50.618;7.932;2023-04-07T08:34:45;0.10;;;0.10;;
64140;SDS011;50436;50.618;7.932;2023-04-07T08:37:32;0.10;;;0.10;;
64140;SDS011;50436;50.618;7.932;2023-04-07T08:40:18;0.10;;;0.10;;
64140;SDS011;50436;50.618;7.932;2023-04-07T08:43:07;0.10;;;0.10;;
64140;SDS011;50436;50.618;7.932;2023-04-07T08:45:53;0.10;;;0.10;;
64140;SDS011;50436;50.618;7.932;2023-04-07T08:48:41;0.10;;;0.10;;
64140;SDS011;50436;50.618;7.932;2023-04-07T08:51:29;0.10;;;0.10;;
64140;SDS011;50436;50.618;7.932;2023-04-07T08:54:16;0.10;;;0.10;;
64140;SDS011;50436;50.618;7.932;2023-04-07T08:57:03;0.10;;;0.10;;
64140;SDS011;50436;50.618;7.932;2023-04-07T08:59:49;0.10;;;0.10;;
64140;SDS011;50436;50.618;7.932;2023-04-07T09:02:36;0.10;;;0.10;;
64140;SDS011;50436;50.618;7.932;2023-04-07T09:05:22;0.20;;;0.20;;
64140;SDS011;50436;50.618;7.932;2023-04-07T09:08:09;0.10;;;0.10;;
64140;SDS011;50436;50.618;7.932;2023-04-07T09:10:55;0.10;;;0.10;;
64140;SDS011;50436;50.618;7.932;2023-04-07T09:13:41;0.10;;;0.10;;
64140;SDS011;50436;50.618;7.932;2023-04-07T09:16:30;0.10;;;0.10;;
64140;SDS011;50436;50.618;7.932;2023-04-07T09:19:16;0.10;;;0.10;;
64140;SDS011;50436;50.618;7.932;2023-04-07T09:22:02;0.10;;;0.10;;
64140;SDS011;50436;50.618;7.932;2023-04-07T09:24:48;0.10;;;0.10;;
64140;SDS011;50436;50.618;7.932;2023-04-07T09:27:36;0.10;;;0.10;;
64140;SDS011;50436;50.618;7.932;2023-04-07T09:30:21;0.20;;;0.20;;
64140;SDS011;50436;50.618;7.932;2023-04-07T09:33:08;0.20;;;0.20;;
64140;SDS011;50436;50.618;7.932;2023-04-07T09:36:01;0.10;;;0.10;;
64140;SDS011;50436;50.618;7.932;2023-04-07T09:38:47;0.10;;;0.10;;
64140;SDS011;50436;50.618;7.932;2023-04-07T09:41:33;0.10;;;0.10;;
64140;SDS011;50436;50.618;7.932;2023-04-07T09:44:19;0.10;;;0.10;;
64140;SDS011;50436;50.618;7.932;2023-04-07T09:47:05;0.10;;;0.10;;
64140;SDS011;50436;50.618;7.932;2023-04-07T09:49:51;0.10;;;0.10;;
64140;SDS011;50436;50.618;7.932;2023-04-07T09:52:53;0.10;;;0.10;;
64140;SDS011;50436;50.618;7.932;2023-04-07T09:55:39;0.10;;;0.10;;
64140;SDS011;50436;50.618;7.932;2023-04-07T09:58:27;0.10;;;0.10;;
64140;SDS011;50436;50.618;7.932;2023-04-07T10:01:14;0.10;;;0.10;;
64140;SDS011;50436;50.618;7.932;2023-04-07T10:04:01;0.20;;;0.20;;
64140;SDS011;50436;50.618;7.932;2023-04-07T10:06:47;0.10;;;0.10;;
64140;SDS011;50436;50.618;7.932;2023-04-07T10:09:33;0.10;;;0.10;;
64140;SDS011;50436;50.618;7.932;2023-04-07T10:12:19;0.10;;;0.10;;
64140;SDS011;50436;50.618;7.932;2023-04-07T10:15:05;0.17;;;0.17;;
64140;SDS011;50436;50.618;7.932;2023-04-07T10:17:51;0.10;;;0.10;;
64140;SDS011;50436;50.618;7.932;2023-04-07T10:20:38;0.10;;;0.10;;
64140;SDS011;50436;50.618;7.932;2023-04-07T10:23:30;0.10;;;0.10;;
64140;SDS011;50436;50.618;7.932;2023-04-07T10:26:17;0.10;;;0.10;;
64140;SDS011;50436;50.618;7.932;2023-04-07T10:29:09;0.10;;;0.10;;
64140;SDS011;50436;50.618;7.932;2023-04-07T10:31:57;0.10;;;0.10;;
64140;SDS011;50436;50.618;7.932;2023-04-07T10:37:35;0.10;;;0.10;;
64140;SDS011;50436;50.618;7.932;2023-04-07T10:40:28;0.10;;;0.10;;
64140;SDS011;50436;50.618;7.932;2023-04-07T10:43:13;0.10;;;0.10;;
64140;SDS011;50436;50.618;7.932;2023-04-07T10:46:19;0.10;;;0.10;;
64140;SDS011;50436;50.618;7.932;2023-04-07T10:49:08;0.10;;;0.10;;
64140;SDS011;50436;50.618;7.932;2023-04-07T10:55:59;0.10;;;0.10;;
64140;SDS011;50436;50.618;7.932;2023-04-07T10:58:26;0.10;;;0.10;;
64140;SDS011;50436;50.618;7.932;2023-04-07T11:01:16;0.10;;;0.10;;
64140;SDS011;50436;50.618;7.932;2023-04-07T11:04:02;0.10;;;0.10;;
64140;SDS011;50436;50.618;7.932;2023-04-07T11:06:49;0.10;;;0.10;;
64140;SDS011;50436;50.618;7.932;2023-04-07T11:09:35;0.10;;;0.10;;
64140;SDS011;50436;50.618;7.932;2023-04-07T11:12:21;0.10;;;0.10;;
64140;SDS011;50436;50.618;7.932;2023-04-07T11:15:17;0.10;;;0.10;;
64140;SDS011;50436;50.618;7.932;2023-04-07T11:18:13;0.10;;;0.10;;
64140;SDS011;50436;50.618;7.932;2023-04-07T11:21:03;0.10;;;0.10;;
64140;SDS011;50436;50.618;7.932;2023-04-07T11:23:51;0.10;;;0.10;;
64140;SDS011;50436;50.618;7.932;2023-04-07T11:26:37;0.15;;;0.15;;
64140;SDS011;50436;50.618;7.932;2023-04-07T11:29:27;0.10;;;0.10;;
64140;SDS011;50436;50.618;7.932;2023-04-07T11:32:13;0.10;;;0.10;;
64140;SDS011;50436;50.618;7.932;2023-04-07T11:34:59;0.10;;;0.10;;
64140;SDS011;50436;50.618;7.932;2023-04-07T11:37:44;0.10;;;0.10;;
64140;SDS011;50436;50.618;7.932;2023-04-07T11:40:35;0.10;;;0.10;;
64140;SDS011;50436;50.618;7.932;2023-04-07T11:43:22;0.10;;;0.10;;
64140;SDS011;50436;50.618;7.932;2023-04-07T11:46:12;0.10;;;0.10;;
64140;SDS011;50436;50.618;7.932;2023-04-07T11:49:08;0.10;;;0.10;;
64140;SDS011;50436;50.618;7.932;2023-04-07T11:51:57;0.10;;;0.10;;
64140;SDS011;50436;50.618;7.932;2023-04-07T11:54:46;0.10;;;0.10;;
64140;SDS011;50436;50.618;7.932;2023-04-07T11:57:34;0.10;;;0.10;;
64140;SDS011;50436;50.618;7.932;2023-04-07T12:00:21;0.10;;;0.10;;
64140;SDS011;50436;50.618;7.932;2023-04-07T12:03:10;0.10;;;0.10;;
64140;SDS011;50436;50.618;7.932;2023-04-07T12:05:59;0.10;;;0.10;;
64140;SDS011;50436;50.618;7.932;2023-04-07T12:08:44;0.10;;;0.10;;
64140;SDS011;50436;50.618;7.932;2023-04-07T12:11:31;0.20;;;0.20;;
64140;SDS011;50436;50.618;7.932;2023-04-07T12:14:17;0.20;;;0.20;;
64140;SDS011;50436;50.618;7.932;2023-04-07T12:17:03;0.10;;;0.10;;
64140;SDS011;50436;50.618;7.932;2023-04-07T12:19:49;0.10;;;0.10;;
64140;SDS011;50436;50.618;7.932;2023-04-07T12:22:34;0.10;;;0.10;;
64140;SDS011;50436;50.618;7.932;2023-04-07T12:25:20;0.10;;;0.10;;
64140;SDS011;50436;50.618;7.932;2023-04-07T12:28:06;0.17;;;0.17;;
64140;SDS011;50436;50.618;7.932;2023-04-07T12:30:53;0.13;;;0.13;;
64140;SDS011;50436;50.618;7.932;2023-04-07T12:33:38;0.10;;;0.10;;
64140;SDS011;50436;50.618;7.932;2023-04-07T12:36:25;0.10;;;0.10;;
64140;SDS011;50436;50.618;7.932;2023-04-07T12:39:11;0.10;;;0.10;;
64140;SDS011;50436;50.618;7.932;2023-04-07T12:41:57;0.10;;;0.10;;
64140;SDS011;50436;50.618;7.932;2023-04-07T12:44:43;0.10;;;0.10;;
64140;SDS011;50436;50.618;7.932;2023-04-07T12:47:29;0.10;;;0.10;;
64140;SDS011;50436;50.618;7.932;2023-04-07T12:50:15;0.10;;;0.10;;
64140;SDS011;50436;50.618;7.932;2023-04-07T12:53:01;0.10;;;0.10;;
64140;SDS011;50436;50.618;7.932;2023-04-07T12:55:50;0.10;;;0.10;;
64140;SDS011;50436;50.618;7.932;2023-04-07T12:58:36;0.20;;;0.20;;
64140;SDS011;50436;50.618;7.932;2023-04-07T13:01:22;0.10;;;0.10;;
64140;SDS011;50436;50.618;7.932;2023-04-07T13:04:07;0.10;;;0.10;;
64140;SDS011;50436;50.618;7.932;2023-04-07T13:06:53;0.10;;;0.10;;
64140;SDS011;50436;50.618;7.932;2023-04-07T13:09:39;0.10;;;0.10;;
64140;SDS011;50436;50.618;7.932;2023-04-07T13:12:28;0.10;;;0.10;;
64140;SDS011;50436;50.618;7.932;2023-04-07T13:15:14;0.17;;;0.17;;
64140;SDS011;50436;50.618;7.932;2023-04-07T13:17:59;0.10;;;0.10;;
64140;SDS011;50436;50.618;7.932;2023-04-07T13:20:45;0.10;;;0.10;;
64140;SDS011;50436;50.618;7.932;2023-04-07T13:23:35;0.10;;;0.10;;
64140;SDS011;50436;50.618;7.932;2023-04-07T13:26:20;0.10;;;0.10;;
64140;SDS011;50436;50.618;7.932;2023-04-07T13:29:06;0.10;;;0.10;;
64140;SDS011;50436;50.618;7.932;2023-04-07T13:31:52;0.10;;;0.10;;
64140;SDS011;50436;50.618;7.932;2023-04-07T13:34:38;0.10;;;0.10;;
64140;SDS011;50436;50.618;7.932;2023-04-07T13:37:25;0.10;;;0.10;;
64140;SDS011;50436;50.618;7.932;2023-04-07T13:40:10;0.10;;;0.10;;
64140;SDS011;50436;50.618;7.932;2023-04-07T13:42:59;0.13;;;0.13;;
64140;SDS011;50436;50.618;7.932;2023-04-07T13:45:45;0.10;;;0.10;;
64140;SDS011;50436;50.618;7.932;2023-04-07T13:48:31;0.13;;;0.13;;
64140;SDS011;50436;50.618;7.932;2023-04-07T13:51:17;0.10;;;0.10;;
64140;SDS011;50436;50.618;7.932;2023-04-07T13:54:03;0.10;;;0.10;;
64140;SDS011;50436;50.618;7.932;2023-04-07T13:56:48;0.10;;;0.10;;
64140;SDS011;50436;50.618;7.932;2023-04-07T13:59:35;0.10;;;0.10;;
64140;SDS011;50436;50.618;7.932;2023-04-07T14:02:20;0.10;;;0.10;;
64140;SDS011;50436;50.618;7.932;2023-04-07T14:05:07;0.10;;;0.10;;
64140;SDS011;50436;50.618;7.932;2023-04-07T14:07:52;0.10;;;0.10;;
64140;SDS011;50436;50.618;7.932;2023-04-07T14:10:39;0.10;;;0.10;;
64140;SDS011;50436;50.618;7.932;2023-04-07T14:13:24;0.10;;;0.10;;
64140;SDS011;50436;50.618;7.932;2023-04-07T14:16:10;0.15;;;0.15;;
64140;SDS011;50436;50.618;7.932;2023-04-07T14:18:57;0.20;;;0.20;;
64140;SDS011;50436;50.618;7.932;2023-04-07T14:21:42;0.10;;;0.10;;
64140;SDS011;50436;50.618;7.932;2023-04-07T14:24:28;0.10;;;0.10;;
64140;SDS011;50436;50.618;7.932;2023-04-07T14:27:14;0.10;;;0.10;;
64140;SDS011;50436;50.618;7.932;2023-04-07T14:30:05;0.10;;;0.10;;
64140;SDS011;50436;50.618;7.932;2023-04-07T14:32:51;0.10;;;0.10;;
64140;SDS011;50436;50.618;7.932;2023-04-07T14:35:37;0.10;;;0.10;;
64140;SDS011;50436;50.618;7.932;2023-04-07T14:38:24;0.20;;;0.20;;
64140;SDS011;50436;50.618;7.932;2023-04-07T14:41:10;0.10;;;0.10;;
64140;SDS011;50436;50.618;7.932;2023-04-07T14:43:56;0.10;;;0.10;;
64140;SDS011;50436;50.618;7.932;2023-04-07T14:46:41;0.10;;;0.10;;
64140;SDS011;50436;50.618;7.932;2023-04-07T14:49:27;0.10;;;0.10;;
64140;SDS011;50436;50.618;7.932;2023-04-07T14:52:13;0.10;;;0.10;;
64140;SDS011;50436;50.618;7.932;2023-04-07T14:54:59;0.10;;;0.10;;
64140;SDS011;50436;50.618;7.932;2023-04-07T14:57:45;0.10;;;0.10;;
64140;SDS011;50436;50.618;7.932;2023-04-07T15:00:30;0.10;;;0.10;;
64140;SDS011;50436;50.618;7.932;2023-04-07T15:03:16;0.10;;;0.10;;
64140;SDS011;50436;50.618;7.932;2023-04-07T15:06:05;0.10;;;0.10;;
64140;SDS011;50436;50.618;7.932;2023-04-07T15:08:52;0.10;;;0.10;;
64140;SDS011;50436;50.618;7.932;2023-04-07T15:11:37;0.10;;;0.10;;
64140;SDS011;50436;50.618;7.932;2023-04-07T15:14:23;0.10;;;0.10;;
64140;SDS011;50436;50.618;7.932;2023-04-07T15:17:09;0.10;;;0.10;;
64140;SDS011;50436;50.618;7.932;2023-04-07T15:19:54;0.10;;;0.10;;
64140;SDS011;50436;50.618;7.932;2023-04-07T15:22:40;0.10;;;0.10;;
64140;SDS011;50436;50.618;7.932;2023-04-07T15:25:26;0.10;;;0.10;;
64140;SDS011;50436;50.618;7.932;2023-04-07T15:28:12;0.10;;;0.10;;
64140;SDS011;50436;50.618;7.932;2023-04-07T15:30:57;0.10;;;0.10;;
64140;SDS011;50436;50.618;7.932;2023-04-07T15:33:43;0.10;;;0.10;;
64140;SDS011;50436;50.618;7.932;2023-04-07T15:36:29;0.10;;;0.10;;
64140;SDS011;50436;50.618;7.932;2023-04-07T15:39:15;0.20;;;0.20;;
64140;SDS011;50436;50.618;7.932;2023-04-07T15:42:01;0.10;;;0.10;;
64140;SDS011;50436;50.618;7.932;2023-04-07T15:44:47;0.10;;;0.10;;
64140;SDS011;50436;50.618;7.932;2023-04-07T15:47:32;0.10;;;0.10;;
64140;SDS011;50436;50.618;7.932;2023-04-07T15:50:18;0.10;;;0.10;;
64140;SDS011;50436;50.618;7.932;2023-04-07T15:53:04;0.10;;;0.10;;
64140;SDS011;50436;50.618;7.932;2023-04-07T15:55:50;0.10;;;0.10;;
64140;SDS011;50436;50.618;7.932;2023-04-07T15:58:36;0.13;;;0.13;;
64140;SDS011;50436;50.618;7.932;2023-04-07T16:01:21;0.10;;;0.10;;
64140;SDS011;50436;50.618;7.932;2023-04-07T16:04:07;0.10;;;0.10;;
64140;SDS011;50436;50.618;7.932;2023-04-07T16:06:53;0.10;;;0.10;;
64140;SDS011;50436;50.618;7.932;2023-04-07T16:09:38;0.10;;;0.10;;
64140;SDS011;50436;50.618;7.932;2023-04-07T16:12:24;0.10;;;0.10;;
64140;SDS011;50436;50.618;7.932;2023-04-07T16:15:10;0.10;;;0.10;;
64140;SDS011;50436;50.618;7.932;2023-04-07T16:17:59;0.10;;;0.10;;
64140;SDS011;50436;50.618;7.932;2023-04-07T16:20:44;0.10;;;0.10;;
64140;SDS011;50436;50.618;7.932;2023-04-07T16:23:30;0.10;;;0.10;;
64140;SDS011;50436;50.618;7.932;2023-04-07T16:26:16;0.10;;;0.10;;
64140;SDS011;50436;50.618;7.932;2023-04-07T16:29:02;0.10;;;0.10;;
64140;SDS011;50436;50.618;7.932;2023-04-07T16:31:47;0.10;;;0.10;;
64140;SDS011;50436;50.618;7.932;2023-04-07T16:34:33;0.10;;;0.10;;
64140;SDS011;50436;50.618;7.932;2023-04-07T16:37:19;0.10;;;0.10;;
64140;SDS011;50436;50.618;7.932;2023-04-07T16:40:05;0.10;;;0.10;;
64140;SDS011;50436;50.618;7.932;2023-04-07T16:42:51;0.20;;;0.20;;
64140;SDS011;50436;50.618;7.932;2023-04-07T16:45:36;0.10;;;0.10;;
64140;SDS011;50436;50.618;7.932;2023-04-07T16:48:22;0.10;;;0.10;;
64140;SDS011;50436;50.618;7.932;2023-04-07T16:51:08;0.10;;;0.10;;
64140;SDS011;50436;50.618;7.932;2023-04-07T16:53:53;0.10;;;0.10;;
64140;SDS011;50436;50.618;7.932;2023-04-07T16:56:39;0.10;;;0.10;;
64140;SDS011;50436;50.618;7.932;2023-04-07T16:59:25;0.10;;;0.10;;
64140;SDS011;50436;50.618;7.932;2023-04-07T17:02:11;0.10;;;0.10;;
64140;SDS011;50436;50.618;7.932;2023-04-07T17:04:58;0.10;;;0.10;;